Helena, AR

6:09 PM CST on February 14, 2016 (GMT -0600)
Tunica | | Change Station
CLOSE
Current Station
Airport
Location: Tunica,
Elevation: 194 ft
Nearby Weather Stations

Elev 194 ft 34.68 °N, 90.35 °W | Updated 14 minutes ago

Overcast
Overcast
54 °F
Feels Like 54 °F
N
10
Wind Variable Wind from South

Today
High -- | Low -- °F
--% Chance of Precip.
Yesterday
High -- | Low -- °F
Precip. -- in
Pressure 29.97 in
Visibility 10.0 miles
Clouds Scattered Clouds 4700 ft
Mostly Cloudy 6500 ft
Mostly Cloudy 7500 ft
Dew Point 34 °F
Humidity 47%
Rainfall 0.00 in
Snow Depth Not available.
6:49 AM 5:44 PM
Waxing Crescent, 46% visible
METAR KUTA 142355Z AUTO 17009KT 10SM SCT047 BKN065 BKN075 12/01 A2997 RMK AO2 TSNO
Pressure 29.97 in
Visibility 10.0 miles
Clouds Scattered Clouds 4700 ft
Mostly Cloudy 6500 ft
Mostly Cloudy 7500 ft
Dew Point 34 °F
Humidity 47%
Rainfall 0.00 in
Snow Depth Not available.
6:49 AM 5:44 PM
Waxing Crescent, 46% visible
METAR KUTA 142355Z AUTO 17009KT 10SM SCT047 BKN065 BKN075 12/01 A2997 RMK AO2 TSNO

10-Day Weather Forecast

Almanac

Astronomy

Feb. 14, 2016 Rise Set
Actual Time
Civil Twilight
Nautical Twilight
Astronomical Twilight
Moon
Length of Visible Light
Length of Day
Tomorrow will be .
, % of the Moon is Illuminated

Today's Extremes

State Highs State Lows

Community

WunderPhotos

Upload Photos

1,892,937 photos uploaded!

WunderBlog® & News

Nearby

Air Quality

  Air Quality AQ Index Pollutant
Not available.

Snow Depth

Station Depth Elevation

Earthquake Activity

City Distance Mag. Time & Date
Minimum magnitude displayed is 2.5.

Coastal Water Temperatures

Place Temperature

Stations

Nearby Weather Stations

Station Location Temp. Windchill Dew Point Humidity Wind Precip. Elev Updated Type
                   

Watches & Warnings

There are currently no watches in effect.